sensor_id;sensor_type;location;lat;lon;timestamp;P1;durP1;ratioP1;P2;durP2;ratioP2
74849;SDS011;63397;47.480;19.238;2024-02-04T00:00:19;1.10;;;0.30;;
74849;SDS011;63397;47.480;19.238;2024-02-04T00:03:21;0.85;;;0.32;;
74849;SDS011;63397;47.480;19.238;2024-02-04T00:06:25;1.65;;;0.50;;
74849;SDS011;63397;47.480;19.238;2024-02-04T00:09:28;1.15;;;0.40;;
74849;SDS011;63397;47.480;19.238;2024-02-04T00:12:31;1.93;;;0.40;;
74849;SDS011;63397;47.480;19.238;2024-02-04T00:15:33;1.02;;;0.40;;
74849;SDS011;63397;47.480;19.238;2024-02-04T00:18:35;1.60;;;0.30;;
74849;SDS011;63397;47.480;19.238;2024-02-04T00:21:38;1.35;;;0.30;;
74849;SDS011;63397;47.480;19.238;2024-02-04T00:24:40;0.88;;;0.40;;
74849;SDS011;63397;47.480;19.238;2024-02-04T00:27:42;1.23;;;0.43;;
74849;SDS011;63397;47.480;19.238;2024-02-04T00:30:45;1.15;;;0.38;;
74849;SDS011;63397;47.480;19.238;2024-02-04T00:33:47;1.00;;;0.35;;
74849;SDS011;63397;47.480;19.238;2024-02-04T00:36:50;1.42;;;0.63;;
74849;SDS011;63397;47.480;19.238;2024-02-04T00:39:52;0.95;;;0.40;;
74849;SDS011;63397;47.480;19.238;2024-02-04T00:42:55;1.30;;;0.30;;
74849;SDS011;63397;47.480;19.238;2024-02-04T00:45:57;2.20;;;0.50;;
74849;SDS011;63397;47.480;19.238;2024-02-04T00:49:02;2.28;;;0.60;;
74849;SDS011;63397;47.480;19.238;2024-02-04T00:52:05;0.45;;;0.25;;
74849;SDS011;63397;47.480;19.238;2024-02-04T00:55:07;3.33;;;0.50;;
74849;SDS011;63397;47.480;19.238;2024-02-04T00:58:09;1.73;;;0.50;;
74849;SDS011;63397;47.480;19.238;2024-02-04T01:01:12;1.65;;;0.45;;
74849;SDS011;63397;47.480;19.238;2024-02-04T01:04:14;2.13;;;0.70;;
74849;SDS011;63397;47.480;19.238;2024-02-04T01:07:17;1.23;;;0.50;;
74849;SDS011;63397;47.480;19.238;2024-02-04T01:10:19;1.15;;;0.50;;
74849;SDS011;63397;47.480;19.238;2024-02-04T01:13:21;1.10;;;0.30;;
74849;SDS011;63397;47.480;19.238;2024-02-04T01:16:24;1.08;;;0.40;;
74849;SDS011;63397;47.480;19.238;2024-02-04T01:19:26;1.45;;;0.93;;
74849;SDS011;63397;47.480;19.238;2024-02-04T01:22:28;1.67;;;0.60;;
74849;SDS011;63397;47.480;19.238;2024-02-04T01:25:31;0.93;;;0.30;;
74849;SDS011;63397;47.480;19.238;2024-02-04T01:28:33;1.80;;;0.40;;
74849;SDS011;63397;47.480;19.238;2024-02-04T01:31:35;0.70;;;0.28;;
74849;SDS011;63397;47.480;19.238;2024-02-04T01:34:38;0.65;;;0.20;;
74849;SDS011;63397;47.480;19.238;2024-02-04T01:37:40;1.60;;;0.50;;
74849;SDS011;63397;47.480;19.238;2024-02-04T01:40:42;2.10;;;0.30;;
74849;SDS011;63397;47.480;19.238;2024-02-04T01:43:45;1.30;;;0.40;;
74849;SDS011;63397;47.480;19.238;2024-02-04T01:46:48;0.40;;;0.28;;
74849;SDS011;63397;47.480;19.238;2024-02-04T01:49:50;1.35;;;0.60;;
74849;SDS011;63397;47.480;19.238;2024-02-04T01:52:53;1.45;;;0.60;;
74849;SDS011;63397;47.480;19.238;2024-02-04T01:55:55;1.10;;;0.30;;
74849;SDS011;63397;47.480;19.238;2024-02-04T01:58:58;1.47;;;0.50;;
74849;SDS011;63397;47.480;19.238;2024-02-04T02:02:01;1.00;;;0.38;;
74849;SDS011;63397;47.480;19.238;2024-02-04T02:05:03;1.73;;;0.50;;
74849;SDS011;63397;47.480;19.238;2024-02-04T02:08:06;1.58;;;0.50;;
74849;SDS011;63397;47.480;19.238;2024-02-04T02:11:11;1.45;;;0.52;;
74849;SDS011;63397;47.480;19.238;2024-02-04T02:14:16;1.07;;;0.43;;
74849;SDS011;63397;47.480;19.238;2024-02-04T02:17:20;1.10;;;0.40;;
74849;SDS011;63397;47.480;19.238;2024-02-04T02:20:27;1.58;;;0.70;;
74849;SDS011;63397;47.480;19.238;2024-02-04T02:23:36;1.40;;;0.50;;
74849;SDS011;63397;47.480;19.238;2024-02-04T02:26:38;1.58;;;0.50;;
74849;SDS011;63397;47.480;19.238;2024-02-04T02:29:42;1.00;;;0.37;;
74849;SDS011;63397;47.480;19.238;2024-02-04T02:32:44;1.38;;;0.50;;
74849;SDS011;63397;47.480;19.238;2024-02-04T02:35:49;0.75;;;0.20;;
74849;SDS011;63397;47.480;19.238;2024-02-04T02:38:56;2.17;;;0.60;;
74849;SDS011;63397;47.480;19.238;2024-02-04T02:42:01;1.33;;;0.50;;
74849;SDS011;63397;47.480;19.238;2024-02-04T02:45:06;0.97;;;0.30;;
74849;SDS011;63397;47.480;19.238;2024-02-04T02:48:09;1.27;;;0.40;;
74849;SDS011;63397;47.480;19.238;2024-02-04T02:51:12;2.15;;;0.73;;
74849;SDS011;63397;47.480;19.238;2024-02-04T02:54:14;0.80;;;0.32;;
74849;SDS011;63397;47.480;19.238;2024-02-04T02:57:16;2.10;;;0.60;;
74849;SDS011;63397;47.480;19.238;2024-02-04T03:00:19;2.50;;;0.60;;
74849;SDS011;63397;47.480;19.238;2024-02-04T03:03:21;2.75;;;0.45;;
74849;SDS011;63397;47.480;19.238;2024-02-04T03:06:23;1.85;;;0.60;;
74849;SDS011;63397;47.480;19.238;2024-02-04T03:09:26;1.42;;;0.50;;
74849;SDS011;63397;47.480;19.238;2024-02-04T03:12:28;1.08;;;0.40;;
74849;SDS011;63397;47.480;19.238;2024-02-04T03:15:31;3.77;;;0.90;;
74849;SDS011;63397;47.480;19.238;2024-02-04T03:18:33;2.10;;;0.63;;
74849;SDS011;63397;47.480;19.238;2024-02-04T03:21:36;1.73;;;0.47;;
74849;SDS011;63397;47.480;19.238;2024-02-04T03:24:39;1.45;;;0.40;;
74849;SDS011;63397;47.480;19.238;2024-02-04T03:27:42;2.03;;;0.50;;
74849;SDS011;63397;47.480;19.238;2024-02-04T03:30:45;1.87;;;0.53;;
74849;SDS011;63397;47.480;19.238;2024-02-04T03:33:47;0.80;;;0.40;;
74849;SDS011;63397;47.480;19.238;2024-02-04T03:36:50;2.17;;;0.50;;
74849;SDS011;63397;47.480;19.238;2024-02-04T03:39:53;1.80;;;0.60;;
74849;SDS011;63397;47.480;19.238;2024-02-04T03:42:55;1.55;;;0.68;;
74849;SDS011;63397;47.480;19.238;2024-02-04T03:45:58;3.13;;;0.67;;
74849;SDS011;63397;47.480;19.238;2024-02-04T03:49:01;2.05;;;0.60;;
74849;SDS011;63397;47.480;19.238;2024-02-04T03:52:03;1.42;;;0.80;;
74849;SDS011;63397;47.480;19.238;2024-02-04T03:55:06;2.88;;;0.52;;
74849;SDS011;63397;47.480;19.238;2024-02-04T03:58:08;1.50;;;0.70;;
74849;SDS011;63397;47.480;19.238;2024-02-04T04:01:11;1.40;;;0.33;;
74849;SDS011;63397;47.480;19.238;2024-02-04T04:04:14;2.20;;;0.80;;
74849;SDS011;63397;47.480;19.238;2024-02-04T04:07:17;1.42;;;0.60;;
74849;SDS011;63397;47.480;19.238;2024-02-04T04:10:19;1.75;;;0.82;;
74849;SDS011;63397;47.480;19.238;2024-02-04T04:13:22;2.78;;;0.95;;
74849;SDS011;63397;47.480;19.238;2024-02-04T04:16:24;2.37;;;0.70;;
74849;SDS011;63397;47.480;19.238;2024-02-04T04:19:26;1.55;;;0.63;;
74849;SDS011;63397;47.480;19.238;2024-02-04T04:22:29;5.15;;;0.77;;
74849;SDS011;63397;47.480;19.238;2024-02-04T04:25:31;2.08;;;0.90;;
74849;SDS011;63397;47.480;19.238;2024-02-04T04:28:33;2.10;;;0.80;;
74849;SDS011;63397;47.480;19.238;2024-02-04T04:31:36;2.80;;;0.90;;
74849;SDS011;63397;47.480;19.238;2024-02-04T04:34:38;1.73;;;0.60;;
74849;SDS011;63397;47.480;19.238;2024-02-04T04:37:40;1.73;;;0.68;;
74849;SDS011;63397;47.480;19.238;2024-02-04T04:40:43;2.13;;;0.93;;
74849;SDS011;63397;47.480;19.238;2024-02-04T04:43:45;3.58;;;1.40;;
74849;SDS011;63397;47.480;19.238;2024-02-04T04:46:47;1.77;;;0.70;;
74849;SDS011;63397;47.480;19.238;2024-02-04T04:49:50;3.10;;;0.90;;
74849;SDS011;63397;47.480;19.238;2024-02-04T04:52:53;2.47;;;0.80;;
74849;SDS011;63397;47.480;19.238;2024-02-04T04:55:55;2.40;;;0.90;;
74849;SDS011;63397;47.480;19.238;2024-02-04T04:58:57;3.13;;;1.05;;
74849;SDS011;63397;47.480;19.238;2024-02-04T05:01:59;4.47;;;0.80;;
74849;SDS011;63397;47.480;19.238;2024-02-04T05:05:02;2.58;;;0.80;;
74849;SDS011;63397;47.480;19.238;2024-02-04T05:08:04;2.50;;;1.10;;
74849;SDS011;63397;47.480;19.238;2024-02-04T05:11:07;2.30;;;0.90;;
74849;SDS011;63397;47.480;19.238;2024-02-04T05:14:09;1.67;;;0.70;;
74849;SDS011;63397;47.480;19.238;2024-02-04T05:17:11;2.47;;;0.83;;
74849;SDS011;63397;47.480;19.238;2024-02-04T05:20:14;3.00;;;0.80;;
74849;SDS011;63397;47.480;19.238;2024-02-04T05:23:16;2.28;;;0.98;;
74849;SDS011;63397;47.480;19.238;2024-02-04T05:26:18;1.70;;;0.80;;
74849;SDS011;63397;47.480;19.238;2024-02-04T05:29:21;3.55;;;0.90;;
74849;SDS011;63397;47.480;19.238;2024-02-04T05:32:23;3.20;;;1.20;;
74849;SDS011;63397;47.480;19.238;2024-02-04T05:35:25;2.35;;;0.75;;
74849;SDS011;63397;47.480;19.238;2024-02-04T05:38:28;1.60;;;0.77;;
74849;SDS011;63397;47.480;19.238;2024-02-04T05:41:30;3.08;;;0.90;;
74849;SDS011;63397;47.480;19.238;2024-02-04T05:44:32;2.83;;;0.85;;
74849;SDS011;63397;47.480;19.238;2024-02-04T05:47:34;2.20;;;0.90;;
74849;SDS011;63397;47.480;19.238;2024-02-04T05:50:37;2.03;;;0.63;;
74849;SDS011;63397;47.480;19.238;2024-02-04T05:53:39;3.05;;;0.85;;
74849;SDS011;63397;47.480;19.238;2024-02-04T05:56:41;2.63;;;0.85;;
74849;SDS011;63397;47.480;19.238;2024-02-04T05:59:44;2.83;;;0.88;;
74849;SDS011;63397;47.480;19.238;2024-02-04T06:02:46;4.57;;;0.87;;
74849;SDS011;63397;47.480;19.238;2024-02-04T06:05:48;2.88;;;0.98;;
74849;SDS011;63397;47.480;19.238;2024-02-04T06:08:51;2.35;;;0.85;;
74849;SDS011;63397;47.480;19.238;2024-02-04T06:11:53;1.95;;;0.73;;
74849;SDS011;63397;47.480;19.238;2024-02-04T06:14:56;1.83;;;0.82;;
74849;SDS011;63397;47.480;19.238;2024-02-04T06:17:58;2.37;;;0.70;;
74849;SDS011;63397;47.480;19.238;2024-02-04T06:21:00;2.65;;;0.77;;
74849;SDS011;63397;47.480;19.238;2024-02-04T06:24:02;1.80;;;0.70;;
74849;SDS011;63397;47.480;19.238;2024-02-04T06:27:05;1.77;;;0.60;;
74849;SDS011;63397;47.480;19.238;2024-02-04T06:30:07;1.75;;;0.68;;
74849;SDS011;63397;47.480;19.238;2024-02-04T06:33:12;1.40;;;0.50;;
74849;SDS011;63397;47.480;19.238;2024-02-04T06:36:14;2.17;;;0.68;;
74849;SDS011;63397;47.480;19.238;2024-02-04T06:39:16;2.20;;;0.80;;
74849;SDS011;63397;47.480;19.238;2024-02-04T06:42:18;2.35;;;0.75;;
74849;SDS011;63397;47.480;19.238;2024-02-04T06:45:21;2.58;;;1.08;;
74849;SDS011;63397;47.480;19.238;2024-02-04T06:48:23;2.63;;;1.00;;
74849;SDS011;63397;47.480;19.238;2024-02-04T06:51:25;2.83;;;0.82;;
74849;SDS011;63397;47.480;19.238;2024-02-04T06:54:28;3.50;;;0.90;;
74849;SDS011;63397;47.480;19.238;2024-02-04T06:57:30;1.15;;;0.52;;
74849;SDS011;63397;47.480;19.238;2024-02-04T07:00:32;2.67;;;0.90;;
74849;SDS011;63397;47.480;19.238;2024-02-04T07:03:35;1.77;;;0.47;;
74849;SDS011;63397;47.480;19.238;2024-02-04T07:06:37;1.65;;;0.65;;
74849;SDS011;63397;47.480;19.238;2024-02-04T07:09:40;2.15;;;0.75;;
74849;SDS011;63397;47.480;19.238;2024-02-04T07:12:42;2.17;;;0.75;;
74849;SDS011;63397;47.480;19.238;2024-02-04T07:15:45;1.98;;;0.70;;
74849;SDS011;63397;47.480;19.238;2024-02-04T07:18:47;2.13;;;0.73;;
74849;SDS011;63397;47.480;19.238;2024-02-04T07:21:50;1.25;;;0.65;;
74849;SDS011;63397;47.480;19.238;2024-02-04T07:24:52;1.50;;;0.55;;
74849;SDS011;63397;47.480;19.238;2024-02-04T07:27:55;2.13;;;0.88;;
74849;SDS011;63397;47.480;19.238;2024-02-04T07:30:58;1.77;;;0.82;;
74849;SDS011;63397;47.480;19.238;2024-02-04T07:34:00;2.03;;;0.73;;
74849;SDS011;63397;47.480;19.238;2024-02-04T07:37:03;2.45;;;0.73;;
74849;SDS011;63397;47.480;19.238;2024-02-04T07:40:06;2.15;;;0.70;;
74849;SDS011;63397;47.480;19.238;2024-02-04T07:43:08;2.60;;;0.52;;
74849;SDS011;63397;47.480;19.238;2024-02-04T07:46:11;1.75;;;0.60;;
74849;SDS011;63397;47.480;19.238;2024-02-04T07:49:13;1.87;;;0.60;;
74849;SDS011;63397;47.480;19.238;2024-02-04T07:52:16;1.98;;;0.60;;
74849;SDS011;63397;47.480;19.238;2024-02-04T07:55:18;2.72;;;0.75;;
74849;SDS011;63397;47.480;19.238;2024-02-04T07:58:21;1.35;;;0.40;;
74849;SDS011;63397;47.480;19.238;2024-02-04T08:01:23;2.35;;;0.65;;
74849;SDS011;63397;47.480;19.238;2024-02-04T08:04:26;1.23;;;0.30;;
74849;SDS011;63397;47.480;19.238;2024-02-04T08:07:28;1.67;;;0.50;;
74849;SDS011;63397;47.480;19.238;2024-02-04T08:10:31;2.22;;;0.80;;
74849;SDS011;63397;47.480;19.238;2024-02-04T08:13:33;1.85;;;0.60;;
74849;SDS011;63397;47.480;19.238;2024-02-04T08:16:35;1.38;;;0.30;;
74849;SDS011;63397;47.480;19.238;2024-02-04T08:19:38;1.10;;;0.50;;
74849;SDS011;63397;47.480;19.238;2024-02-04T08:22:40;2.53;;;0.68;;
74849;SDS011;63397;47.480;19.238;2024-02-04T08:25:43;2.28;;;0.68;;
74849;SDS011;63397;47.480;19.238;2024-02-04T08:28:45;1.88;;;0.60;;
74849;SDS011;63397;47.480;19.238;2024-02-04T08:31:47;1.58;;;0.55;;
74849;SDS011;63397;47.480;19.238;2024-02-04T08:34:49;1.13;;;0.50;;
74849;SDS011;63397;47.480;19.238;2024-02-04T08:37:52;2.95;;;0.50;;
74849;SDS011;63397;47.480;19.238;2024-02-04T08:40:54;1.45;;;0.65;;
74849;SDS011;63397;47.480;19.238;2024-02-04T08:43:56;1.77;;;0.55;;
74849;SDS011;63397;47.480;19.238;2024-02-04T08:47:01;1.17;;;0.50;;
74849;SDS011;63397;47.480;19.238;2024-02-04T08:50:05;5.03;;;0.73;;
74849;SDS011;63397;47.480;19.238;2024-02-04T08:53:07;1.60;;;0.60;;
74849;SDS011;63397;47.480;19.238;2024-02-04T08:56:10;1.10;;;0.40;;
74849;SDS011;63397;47.480;19.238;2024-02-04T08:59:12;1.42;;;0.50;;
74849;SDS011;63397;47.480;19.238;2024-02-04T09:02:14;1.42;;;0.55;;
74849;SDS011;63397;47.480;19.238;2024-02-04T09:05:16;1.40;;;0.60;;
74849;SDS011;63397;47.480;19.238;2024-02-04T09:08:20;1.92;;;0.50;;
74849;SDS011;63397;47.480;19.238;2024-02-04T09:11:22;1.10;;;0.43;;
74849;SDS011;63397;47.480;19.238;2024-02-04T09:14:26;2.20;;;0.68;;
74849;SDS011;63397;47.480;19.238;2024-02-04T09:17:28;1.75;;;0.50;;
74849;SDS011;63397;47.480;19.238;2024-02-04T09:20:31;2.20;;;0.40;;
74849;SDS011;63397;47.480;19.238;2024-02-04T09:23:33;1.40;;;0.57;;
74849;SDS011;63397;47.480;19.238;2024-02-04T09:26:35;2.10;;;0.70;;
74849;SDS011;63397;47.480;19.238;2024-02-04T09:29:38;0.93;;;0.50;;
74849;SDS011;63397;47.480;19.238;2024-02-04T09:32:40;1.50;;;0.55;;
74849;SDS011;63397;47.480;19.238;2024-02-04T09:35:43;1.63;;;0.53;;
74849;SDS011;63397;47.480;19.238;2024-02-04T09:38:46;0.88;;;0.30;;
74849;SDS011;63397;47.480;19.238;2024-02-04T09:41:48;1.55;;;0.45;;
74849;SDS011;63397;47.480;19.238;2024-02-04T09:44:50;1.45;;;0.50;;
74849;SDS011;63397;47.480;19.238;2024-02-04T09:47:53;1.15;;;0.40;;
74849;SDS011;63397;47.480;19.238;2024-02-04T09:50:56;2.13;;;0.30;;
74849;SDS011;63397;47.480;19.238;2024-02-04T09:54:04;1.02;;;0.50;;
74849;SDS011;63397;47.480;19.238;2024-02-04T09:57:08;1.35;;;0.50;;
74849;SDS011;63397;47.480;19.238;2024-02-04T10:00:11;2.55;;;0.45;;
74849;SDS011;63397;47.480;19.238;2024-02-04T10:03:14;0.65;;;0.35;;
74849;SDS011;63397;47.480;19.238;2024-02-04T10:06:16;0.83;;;0.30;;
74849;SDS011;63397;47.480;19.238;2024-02-04T10:09:19;1.88;;;0.60;;
74849;SDS011;63397;47.480;19.238;2024-02-04T10:12:22;0.85;;;0.32;;
74849;SDS011;63397;47.480;19.238;2024-02-04T10:15:29;1.52;;;0.55;;
74849;SDS011;63397;47.480;19.238;2024-02-04T10:18:32;1.58;;;0.30;;
74849;SDS011;63397;47.480;19.238;2024-02-04T10:21:34;1.67;;;0.50;;
74849;SDS011;63397;47.480;19.238;2024-02-04T10:24:36;3.72;;;0.50;;
74849;SDS011;63397;47.480;19.238;2024-02-04T10:27:39;1.13;;;0.40;;
74849;SDS011;63397;47.480;19.238;2024-02-04T10:30:41;2.55;;;0.40;;
74849;SDS011;63397;47.480;19.238;2024-02-04T10:33:44;2.15;;;0.60;;
74849;SDS011;63397;47.480;19.238;2024-02-04T10:36:47;0.90;;;0.50;;
74849;SDS011;63397;47.480;19.238;2024-02-04T10:39:50;0.82;;;0.38;;
74849;SDS011;63397;47.480;19.238;2024-02-04T10:42:52;1.90;;;0.40;;
74849;SDS011;63397;47.480;19.238;2024-02-04T10:45:57;1.00;;;0.40;;
74849;SDS011;63397;47.480;19.238;2024-02-04T10:49:03;1.15;;;0.40;;
74849;SDS011;63397;47.480;19.238;2024-02-04T10:52:06;1.03;;;0.40;;
74849;SDS011;63397;47.480;19.238;2024-02-04T10:55:10;1.30;;;0.38;;
74849;SDS011;63397;47.480;19.238;2024-02-04T10:58:13;2.10;;;0.50;;
74849;SDS011;63397;47.480;19.238;2024-02-04T11:01:18;1.50;;;0.57;;
74849;SDS011;63397;47.480;19.238;2024-02-04T11:04:21;1.25;;;0.40;;
74849;SDS011;63397;47.480;19.238;2024-02-04T11:07:23;0.83;;;0.33;;
74849;SDS011;63397;47.480;19.238;2024-02-04T11:10:27;1.63;;;0.50;;
74849;SDS011;63397;47.480;19.238;2024-02-04T11:13:29;1.08;;;0.40;;
74849;SDS011;63397;47.480;19.238;2024-02-04T11:19:37;1.63;;;0.40;;
74849;SDS011;63397;47.480;19.238;2024-02-04T11:26:16;1.65;;;0.50;;
74849;SDS011;63397;47.480;19.238;2024-02-04T11:29:20;1.95;;;0.50;;
74849;SDS011;63397;47.480;19.238;2024-02-04T11:32:26;1.42;;;0.43;;
74849;SDS011;63397;47.480;19.238;2024-02-04T11:35:28;0.75;;;0.25;;
74849;SDS011;63397;47.480;19.238;2024-02-04T11:38:31;0.87;;;0.33;;
74849;SDS011;63397;47.480;19.238;2024-02-04T11:41:34;1.38;;;0.38;;
74849;SDS011;63397;47.480;19.238;2024-02-04T11:44:46;1.83;;;0.63;;
74849;SDS011;63397;47.480;19.238;2024-02-04T11:47:48;1.70;;;0.63;;
74849;SDS011;63397;47.480;19.238;2024-02-04T11:51:04;1.83;;;0.52;;
74849;SDS011;63397;47.480;19.238;2024-02-04T11:54:08;1.23;;;0.30;;
74849;SDS011;63397;47.480;19.238;2024-02-04T11:57:10;1.67;;;0.65;;
74849;SDS011;63397;47.480;19.238;2024-02-04T12:00:13;0.80;;;0.35;;
74849;SDS011;63397;47.480;19.238;2024-02-04T12:03:15;0.93;;;0.40;;
74849;SDS011;63397;47.480;19.238;2024-02-04T12:06:17;1.25;;;0.40;;
74849;SDS011;63397;47.480;19.238;2024-02-04T12:09:21;1.00;;;0.30;;
74849;SDS011;63397;47.480;19.238;2024-02-04T12:12:27;2.05;;;0.60;;
74849;SDS011;63397;47.480;19.238;2024-02-04T12:15:30;0.50;;;0.20;;
74849;SDS011;63397;47.480;19.238;2024-02-04T12:18:32;1.05;;;0.35;;
74849;SDS011;63397;47.480;19.238;2024-02-04T12:21:35;0.93;;;0.30;;
74849;SDS011;63397;47.480;19.238;2024-02-04T12:24:38;1.17;;;0.50;;
74849;SDS011;63397;47.480;19.238;2024-02-04T12:27:41;0.93;;;0.50;;
74849;SDS011;63397;47.480;19.238;2024-02-04T12:30:52;2.08;;;0.47;;
74849;SDS011;63397;47.480;19.238;2024-02-04T12:33:55;1.00;;;0.30;;
74849;SDS011;63397;47.480;19.238;2024-02-04T12:37:00;0.73;;;0.20;;
74849;SDS011;63397;47.480;19.238;2024-02-04T12:40:03;0.80;;;0.30;;
74849;SDS011;63397;47.480;19.238;2024-02-04T12:43:06;1.17;;;0.30;;
74849;SDS011;63397;47.480;19.238;2024-02-04T12:46:08;2.25;;;0.47;;
74849;SDS011;63397;47.480;19.238;2024-02-04T12:49:16;1.05;;;0.20;;
74849;SDS011;63397;47.480;19.238;2024-02-04T12:52:20;1.08;;;0.50;;
74849;SDS011;63397;47.480;19.238;2024-02-04T12:55:25;1.87;;;0.50;;
74849;SDS011;63397;47.480;19.238;2024-02-04T12:58:41;0.85;;;0.20;;
74849;SDS011;63397;47.480;19.238;2024-02-04T13:01:43;0.98;;;0.40;;
74849;SDS011;63397;47.480;19.238;2024-02-04T13:04:46;0.95;;;0.38;;
74849;SDS011;63397;47.480;19.238;2024-02-04T13:07:55;1.13;;;0.40;;
74849;SDS011;63397;47.480;19.238;2024-02-04T13:10:58;1.03;;;0.40;;
74849;SDS011;63397;47.480;19.238;2024-02-04T13:14:00;1.83;;;0.50;;
74849;SDS011;63397;47.480;19.238;2024-02-04T13:17:03;1.27;;;0.40;;
74849;SDS011;63397;47.480;19.238;2024-02-04T13:20:06;0.98;;;0.30;;
74849;SDS011;63397;47.480;19.238;2024-02-04T13:23:11;1.20;;;0.50;;
74849;SDS011;63397;47.480;19.238;2024-02-04T13:26:13;0.80;;;0.20;;
74849;SDS011;63397;47.480;19.238;2024-02-04T13:29:16;1.13;;;0.20;;
74849;SDS011;63397;47.480;19.238;2024-02-04T13:32:18;0.55;;;0.30;;
74849;SDS011;63397;47.480;19.238;2024-02-04T13:35:20;0.35;;;0.17;;
74849;SDS011;63397;47.480;19.238;2024-02-04T13:38:23;1.58;;;0.40;;
74849;SDS011;63397;47.480;19.238;2024-02-04T13:41:26;0.77;;;0.30;;
74849;SDS011;63397;47.480;19.238;2024-02-04T13:44:28;0.32;;;0.20;;
74849;SDS011;63397;47.480;19.238;2024-02-04T13:47:31;0.32;;;0.20;;
74849;SDS011;63397;47.480;19.238;2024-02-04T13:50:33;1.02;;;0.20;;
74849;SDS011;63397;47.480;19.238;2024-02-04T13:53:37;0.60;;;0.30;;
74849;SDS011;63397;47.480;19.238;2024-02-04T13:56:40;1.03;;;0.20;;
74849;SDS011;63397;47.480;19.238;2024-02-04T13:59:42;0.40;;;0.22;;
74849;SDS011;63397;47.480;19.238;2024-02-04T14:02:44;0.50;;;0.30;;
74849;SDS011;63397;47.480;19.238;2024-02-04T14:05:46;0.50;;;0.20;;
74849;SDS011;63397;47.480;19.238;2024-02-04T14:08:49;0.57;;;0.30;;
74849;SDS011;63397;47.480;19.238;2024-02-04T14:11:51;0.93;;;0.40;;
74849;SDS011;63397;47.480;19.238;2024-02-04T14:14:54;1.17;;;0.30;;
74849;SDS011;63397;47.480;19.238;2024-02-04T14:17:56;0.63;;;0.32;;
74849;SDS011;63397;47.480;19.238;2024-02-04T14:20:59;1.40;;;0.35;;
74849;SDS011;63397;47.480;19.238;2024-02-04T14:24:01;0.70;;;0.30;;
74849;SDS011;63397;47.480;19.238;2024-02-04T14:27:04;0.70;;;0.27;;
74849;SDS011;63397;47.480;19.238;2024-02-04T14:30:06;0.85;;;0.28;;
74849;SDS011;63397;47.480;19.238;2024-02-04T14:33:09;0.82;;;0.40;;
74849;SDS011;63397;47.480;19.238;2024-02-04T14:36:11;1.17;;;0.30;;
74849;SDS011;63397;47.480;19.238;2024-02-04T14:39:14;0.82;;;0.30;;
74849;SDS011;63397;47.480;19.238;2024-02-04T14:42:16;0.73;;;0.30;;
74849;SDS011;63397;47.480;19.238;2024-02-04T14:45:20;0.68;;;0.38;;
74849;SDS011;63397;47.480;19.238;2024-02-04T14:48:22;1.02;;;0.40;;
74849;SDS011;63397;47.480;19.238;2024-02-04T14:51:25;0.82;;;0.30;;
74849;SDS011;63397;47.480;19.238;2024-02-04T14:54:27;0.43;;;0.20;;
74849;SDS011;63397;47.480;19.238;2024-02-04T14:57:30;2.00;;;0.53;;
74849;SDS011;63397;47.480;19.238;2024-02-04T15:00:32;1.35;;;0.40;;
74849;SDS011;63397;47.480;19.238;2024-02-04T15:03:34;1.15;;;0.40;;
74849;SDS011;63397;47.480;19.238;2024-02-04T15:06:37;0.68;;;0.30;;
74849;SDS011;63397;47.480;19.238;2024-02-04T15:09:39;0.88;;;0.30;;
74849;SDS011;63397;47.480;19.238;2024-02-04T15:12:42;1.57;;;0.30;;
74849;SDS011;63397;47.480;19.238;2024-02-04T15:15:45;0.75;;;0.30;;
74849;SDS011;63397;47.480;19.238;2024-02-04T15:18:47;2.63;;;0.40;;
74849;SDS011;63397;47.480;19.238;2024-02-04T15:21:50;0.77;;;0.32;;
74849;SDS011;63397;47.480;19.238;2024-02-04T15:24:53;0.85;;;0.30;;
74849;SDS011;63397;47.480;19.238;2024-02-04T15:27:56;1.40;;;0.40;;
74849;SDS011;63397;47.480;19.238;2024-02-04T15:30:59;0.60;;;0.20;;
74849;SDS011;63397;47.480;19.238;2024-02-04T15:34:02;0.50;;;0.20;;
74849;SDS011;63397;47.480;19.238;2024-02-04T15:37:06;1.08;;;0.20;;
74849;SDS011;63397;47.480;19.238;2024-02-04T15:40:11;0.55;;;0.20;;
74849;SDS011;63397;47.480;19.238;2024-02-04T15:43:13;0.80;;;0.23;;
74849;SDS011;63397;47.480;19.238;2024-02-04T15:46:17;0.30;;;0.10;;
74849;SDS011;63397;47.480;19.238;2024-02-04T15:49:19;1.52;;;0.30;;
74849;SDS011;63397;47.480;19.238;2024-02-04T15:52:22;1.15;;;0.30;;
74849;SDS011;63397;47.480;19.238;2024-02-04T15:55:25;1.05;;;0.35;;
74849;SDS011;63397;47.480;19.238;2024-02-04T15:58:27;1.27;;;0.30;;
74849;SDS011;63397;47.480;19.238;2024-02-04T16:01:32;0.73;;;0.30;;
74849;SDS011;63397;47.480;19.238;2024-02-04T16:04:35;1.90;;;0.20;;
74849;SDS011;63397;47.480;19.238;2024-02-04T16:07:38;0.63;;;0.20;;
74849;SDS011;63397;47.480;19.238;2024-02-04T16:10:40;0.93;;;0.30;;
74849;SDS011;63397;47.480;19.238;2024-02-04T16:13:44;0.43;;;0.20;;
74849;SDS011;63397;47.480;19.238;2024-02-04T16:16:49;0.85;;;0.28;;
74849;SDS011;63397;47.480;19.238;2024-02-04T16:19:55;0.65;;;0.20;;
74849;SDS011;63397;47.480;19.238;2024-02-04T16:22:59;1.67;;;0.30;;
74849;SDS011;63397;47.480;19.238;2024-02-04T16:26:03;0.82;;;0.28;;
74849;SDS011;63397;47.480;19.238;2024-02-04T16:29:05;2.87;;;0.37;;
74849;SDS011;63397;47.480;19.238;2024-02-04T16:32:08;0.85;;;0.20;;
74849;SDS011;63397;47.480;19.238;2024-02-04T16:35:11;1.33;;;0.30;;
74849;SDS011;63397;47.480;19.238;2024-02-04T16:38:13;0.50;;;0.20;;
74849;SDS011;63397;47.480;19.238;2024-02-04T16:41:16;0.77;;;0.20;;
74849;SDS011;63397;47.480;19.238;2024-02-04T16:44:18;1.10;;;0.30;;
74849;SDS011;63397;47.480;19.238;2024-02-04T16:47:21;0.82;;;0.30;;
74849;SDS011;63397;47.480;19.238;2024-02-04T16:50:24;0.57;;;0.25;;
74849;SDS011;63397;47.480;19.238;2024-02-04T16:53:28;1.20;;;0.30;;
74849;SDS011;63397;47.480;19.238;2024-02-04T16:56:31;0.75;;;0.22;;
74849;SDS011;63397;47.480;19.238;2024-02-04T16:59:33;0.30;;;0.10;;
74849;SDS011;63397;47.480;19.238;2024-02-04T17:02:38;0.57;;;0.17;;
74849;SDS011;63397;47.480;19.238;2024-02-04T17:05:40;1.10;;;0.38;;
74849;SDS011;63397;47.480;19.238;2024-02-04T17:08:57;0.93;;;0.30;;
74849;SDS011;63397;47.480;19.238;2024-02-04T17:12:00;1.73;;;0.30;;
74849;SDS011;63397;47.480;19.238;2024-02-04T17:15:02;2.17;;;0.40;;
74849;SDS011;63397;47.480;19.238;2024-02-04T17:18:05;1.70;;;0.40;;
74849;SDS011;63397;47.480;19.238;2024-02-04T17:21:09;1.08;;;0.38;;
74849;SDS011;63397;47.480;19.238;2024-02-04T17:24:17;0.65;;;0.20;;
74849;SDS011;63397;47.480;19.238;2024-02-04T17:27:20;1.40;;;0.38;;
74849;SDS011;63397;47.480;19.238;2024-02-04T17:30:23;0.63;;;0.10;;
74849;SDS011;63397;47.480;19.238;2024-02-04T17:33:26;0.73;;;0.30;;
74849;SDS011;63397;47.480;19.238;2024-02-04T17:36:28;1.25;;;0.30;;
74849;SDS011;63397;47.480;19.238;2024-02-04T17:39:33;1.00;;;0.25;;
74849;SDS011;63397;47.480;19.238;2024-02-04T17:42:37;0.98;;;0.30;;
74849;SDS011;63397;47.480;19.238;2024-02-04T17:45:42;1.27;;;0.40;;
74849;SDS011;63397;47.480;19.238;2024-02-04T17:48:44;0.75;;;0.20;;
74849;SDS011;63397;47.480;19.238;2024-02-04T17:51:50;0.60;;;0.10;;
74849;SDS011;63397;47.480;19.238;2024-02-04T17:54:53;2.60;;;0.20;;
74849;SDS011;63397;47.480;19.238;2024-02-04T17:57:56;0.82;;;0.32;;
74849;SDS011;63397;47.480;19.238;2024-02-04T18:01:02;1.50;;;0.30;;
74849;SDS011;63397;47.480;19.238;2024-02-04T18:04:05;0.57;;;0.10;;
74849;SDS011;63397;47.480;19.238;2024-02-04T18:07:08;0.55;;;0.20;;
74849;SDS011;63397;47.480;19.238;2024-02-04T18:10:11;0.47;;;0.20;;